createdAt,value
2018-11-10T00:00:20.145Z,74.90
2018-11-10T00:02:49.020Z,72.17
2018-11-10T00:05:17.632Z,73.30
2018-11-10T00:07:45.883Z,71.43
2018-11-10T00:10:13.787Z,74.20
2018-11-10T00:12:41.804Z,75.20
2018-11-10T00:15:10.728Z,75.37
2018-11-10T00:17:38.820Z,68.50
2018-11-10T00:20:06.744Z,83.50
2018-11-10T00:22:34.760Z,75.27
2018-11-10T00:25:02.896Z,86.87
2018-11-10T00:27:30.402Z,70.63
2018-11-10T00:29:58.527Z,69.17
2018-11-10T01:19:33.086Z,108.63
2018-11-10T01:22:01.057Z,100.97
2018-11-10T01:24:29.020Z,107.73
2018-11-10T01:26:59.325Z,107.30
2018-11-10T01:29:27.276Z,99.33
2018-11-10T01:31:55.284Z,91.50
2018-11-10T01:34:23.523Z,102.57
2018-11-10T01:36:51.493Z,106.77
2018-11-10T01:39:19.496Z,104.67
2018-11-10T01:41:47.776Z,113.00
2018-11-10T01:44:15.708Z,101.00
2018-11-10T01:46:43.636Z,105.90
2018-11-10T01:49:11.590Z,112.60
2018-11-10T01:51:39.503Z,106.57
2018-11-10T01:54:07.485Z,102.97
2018-11-10T01:56:35.402Z,111.20
2018-11-10T01:59:03.344Z,100.83
2018-11-10T02:01:31.289Z,106.87
2018-11-10T02:03:59.208Z,107.17
2018-11-10T02:06:27.176Z,85.97
2018-11-10T02:08:55.071Z,88.70
2018-11-10T02:11:23.002Z,76.50
2018-11-10T02:13:50.970Z,75.23
2018-11-10T02:16:18.885Z,73.00
2018-11-10T02:18:46.808Z,68.80
2018-11-10T02:21:14.725Z,63.77
2018-11-10T02:23:42.644Z,68.50
2018-11-10T02:26:10.568Z,68.93
2018-11-10T02:28:38.021Z,66.23
2018-11-10T02:31:06.041Z,73.93
2018-11-10T02:33:34.078Z,65.20
2018-11-10T02:36:02.078Z,77.53
2018-11-10T02:38:30.039Z,68.80
2018-11-10T02:40:57.987Z,78.90
2018-11-10T02:43:25.955Z,82.43
2018-11-10T02:45:54.030Z,78.60
2018-11-10T02:48:22.100Z,81.90
2018-11-10T02:50:50.100Z,86.87
2018-11-10T02:53:18.141Z,80.97
2018-11-10T02:55:46.096Z,99.43
2018-11-10T02:58:14.084Z,80.67
2018-11-10T03:00:41.985Z,91.70
2018-11-10T03:03:09.900Z,93.97
2018-11-10T03:05:37.820Z,85.20
2018-11-10T03:08:05.744Z,95.30
2018-11-10T03:10:33.809Z,102.60
2018-11-10T03:13:01.676Z,102.97
2018-11-10T03:15:29.766Z,96.80
2018-11-10T03:17:57.668Z,93.03
2018-11-10T03:20:25.616Z,83.13
2018-11-10T03:22:53.524Z,95.90
2018-11-10T03:25:21.542Z,82.47
2018-11-10T03:27:50.184Z,92.53
2018-11-10T03:30:18.100Z,90.83
2018-11-10T03:32:46.109Z,78.70
2018-11-10T03:35:14.076Z,77.53
2018-11-10T03:37:42.016Z,74.50
2018-11-10T03:40:10.752Z,72.50
2018-11-10T03:42:39.432Z,64.30
2018-11-10T03:45:08.132Z,81.63
2018-11-10T03:47:36.139Z,70.17
2018-11-10T03:50:04.341Z,76.70
2018-11-10T03:52:32.264Z,66.70
2018-11-10T03:55:00.183Z,69.37
2018-11-10T03:57:28.107Z,72.23
2018-11-10T03:59:56.028Z,64.17
2018-11-10T04:02:23.939Z,65.53
2018-11-10T04:04:51.857Z,73.97
2018-11-10T04:07:19.829Z,61.27
2018-11-10T04:09:47.810Z,60.70
2018-11-10T04:12:16.652Z,64.17
2018-11-10T04:14:44.656Z,61.13
2018-11-10T04:17:12.624Z,65.60
2018-11-10T04:19:40.663Z,65.10
2018-11-10T04:22:08.663Z,69.83
2018-11-10T04:24:36.704Z,64.00
2018-11-10T04:27:04.715Z,70.17
2018-11-10T04:29:32.716Z,61.13
2018-11-10T04:32:00.644Z,62.00
2018-11-10T04:34:28.688Z,66.20
2018-11-10T04:36:56.592Z,58.30
2018-11-10T04:39:24.552Z,66.93
2018-11-10T04:41:52.469Z,60.20
2018-11-10T04:44:20.504Z,64.20
2018-11-10T04:46:48.446Z,62.60
2018-11-10T04:49:16.368Z,48.17
2018-11-10T04:51:44.292Z,54.07
2018-11-10T04:54:12.252Z,56.17
2018-11-10T04:56:40.177Z,61.33
2018-11-10T04:59:08.177Z,56.30
2018-11-10T05:01:36.195Z,58.50
2018-11-10T05:04:04.053Z,53.50
2018-11-10T05:06:32.004Z,61.37
2018-11-10T05:08:59.987Z,58.13
2018-11-10T05:11:27.928Z,54.50
2018-11-10T05:13:55.893Z,49.83
2018-11-10T05:16:23.823Z,48.53
2018-11-10T05:18:51.831Z,47.53
2018-11-10T05:21:19.834Z,49.47
2018-11-10T05:23:47.751Z,43.57
2018-11-10T05:26:15.772Z,47.50
2018-11-10T05:28:44.633Z,51.83
2018-11-10T05:31:12.653Z,45.73
2018-11-10T05:33:40.569Z,43.93
2018-11-10T05:36:08.471Z,42.93
2018-11-10T05:38:36.437Z,43.03
2018-11-10T05:41:04.529Z,47.47
2018-11-10T05:43:32.450Z,40.57
2018-11-10T05:46:00.371Z,44.97
2018-11-10T05:48:28.344Z,43.13
2018-11-10T05:50:56.304Z,38.83
2018-11-10T05:53:24.326Z,46.53
2018-11-10T05:55:52.235Z,43.57
2018-11-10T05:58:21.626Z,37.10
2018-11-10T06:00:53.036Z,38.97
2018-11-10T06:03:21.345Z,35.53
2018-11-10T06:05:49.237Z,35.10
2018-11-10T06:08:17.265Z,33.37
2018-11-10T06:10:45.165Z,33.60
2018-11-10T06:13:13.105Z,33.07
2018-11-10T06:15:41.157Z,37.33
2018-11-10T06:18:10.489Z,32.40
2018-11-10T06:20:41.078Z,30.40
2018-11-10T06:23:09.690Z,29.17
2018-11-10T06:25:39.421Z,28.33
2018-11-10T06:28:11.327Z,25.97
2018-11-10T06:30:40.556Z,29.37
2018-11-10T06:33:10.729Z,34.40
2018-11-10T06:35:40.392Z,35.83
2018-11-10T06:38:08.362Z,34.97
2018-11-10T06:40:36.276Z,33.90
2018-11-10T06:43:08.937Z,31.90
2018-11-10T06:45:36.877Z,40.07
2018-11-10T06:48:06.846Z,32.37
2018-11-10T06:50:34.960Z,31.83
2018-11-10T06:53:02.968Z,33.43
2018-11-10T06:55:30.906Z,34.00
2018-11-10T06:57:58.920Z,34.93
2018-11-10T07:00:26.854Z,32.63
2018-11-10T07:02:54.852Z,28.17
2018-11-10T07:05:22.781Z,34.20
2018-11-10T07:07:50.792Z,33.97
2018-11-10T07:10:18.765Z,35.13
2018-11-10T07:12:46.732Z,33.13
2018-11-10T07:15:14.700Z,34.03
2018-11-10T07:17:42.722Z,28.97
2018-11-10T07:20:10.556Z,32.40
2018-11-10T07:22:38.500Z,33.10
2018-11-10T07:25:06.746Z,34.67
2018-11-10T07:27:34.189Z,30.73
2018-11-10T07:30:02.154Z,31.27
2018-11-10T07:32:30.152Z,33.87
2018-11-10T07:34:58.093Z,35.30
2018-11-10T07:37:26.153Z,33.27
2018-11-10T07:39:54.052Z,33.57
2018-11-10T07:42:21.988Z,35.10
2018-11-10T07:44:49.925Z,33.70
2018-11-10T07:47:17.901Z,36.03
2018-11-10T07:49:45.829Z,33.10
2018-11-10T07:52:13.848Z,31.40
2018-11-10T07:54:41.791Z,34.27
2018-11-10T07:57:09.718Z,34.37
2018-11-10T07:59:37.876Z,39.37
2018-11-10T08:02:05.883Z,31.07
2018-11-10T08:04:33.892Z,32.37
2018-11-10T08:07:01.925Z,29.87
2018-11-10T08:09:29.845Z,30.73
2018-11-10T08:11:57.881Z,28.33
2018-11-10T08:14:25.757Z,29.00
2018-11-10T08:16:53.741Z,26.97
2018-11-10T08:19:21.683Z,27.47
2018-11-10T08:21:49.164Z,23.57
2018-11-10T08:24:17.144Z,28.10
2018-11-10T08:26:45.120Z,26.20
2018-11-10T08:29:12.679Z,24.20
2018-11-10T08:31:40.589Z,24.67
2018-11-10T08:34:08.556Z,22.70
2018-11-10T08:36:36.584Z,24.27
2018-11-10T08:39:06.138Z,22.87
2018-11-10T08:41:34.049Z,21.07
2018-11-10T08:44:02.001Z,19.63
2018-11-10T08:46:29.995Z,19.57
2018-11-10T08:48:57.970Z,20.60
2018-11-10T08:51:25.908Z,19.80
2018-11-10T08:53:53.864Z,22.13
2018-11-10T08:56:21.797Z,21.83
2018-11-10T08:58:49.725Z,18.53
2018-11-10T09:01:17.716Z,19.20
2018-11-10T09:03:46.823Z,18.53
2018-11-10T09:06:14.759Z,19.30
2018-11-10T09:08:42.732Z,20.60
2018-11-10T09:11:10.686Z,19.10
2018-11-10T09:13:38.624Z,21.67
2018-11-10T09:16:06.681Z,21.33
2018-11-10T09:18:34.736Z,20.97
2018-11-10T09:21:02.736Z,19.90
2018-11-10T09:23:30.620Z,24.40
2018-11-10T09:25:58.594Z,17.30
2018-11-10T09:28:26.039Z,21.07
2018-11-10T09:30:54.070Z,21.40
2018-11-10T09:33:22.026Z,20.37
2018-11-10T09:35:50.063Z,22.77
2018-11-10T09:38:18.064Z,19.10
2018-11-10T09:40:45.984Z,22.47
2018-11-10T09:43:14.009Z,18.40
2018-11-10T09:45:41.941Z,20.50
2018-11-10T09:48:09.876Z,22.20
2018-11-10T09:50:37.857Z,19.30
2018-11-10T09:53:05.793Z,18.90
2018-11-10T09:55:33.848Z,19.30
2018-11-10T09:58:01.799Z,16.03
2018-11-10T10:00:29.727Z,17.60
2018-11-10T10:02:57.656Z,14.10
2018-11-10T10:05:25.600Z,15.40
2018-11-10T10:07:53.537Z,16.07
2018-11-10T10:10:21.493Z,15.07
2018-11-10T10:12:49.524Z,16.47
2018-11-10T10:15:18.153Z,16.77
2018-11-10T10:17:46.525Z,15.03
2018-11-10T10:20:15.829Z,15.70
2018-11-10T10:22:44.612Z,15.37
2018-11-10T10:25:13.546Z,12.73
2018-11-10T10:27:41.891Z,19.43
2018-11-10T10:30:13.336Z,15.20
2018-11-10T10:32:41.552Z,14.63
2018-11-10T10:35:09.659Z,13.33
2018-11-10T10:37:37.593Z,15.63
2018-11-10T10:40:06.140Z,13.13
2018-11-10T10:42:34.090Z,13.97
2018-11-10T10:45:02.117Z,17.40
2018-11-10T10:47:30.248Z,12.90
2018-11-10T10:49:58.192Z,18.80
2018-11-10T10:52:26.164Z,14.53
2018-11-10T10:54:54.107Z,13.37
2018-11-10T10:57:22.916Z,16.43
2018-11-10T10:59:50.884Z,11.77
2018-11-10T11:02:24.387Z,13.80
2018-11-10T11:04:54.744Z,13.10
2018-11-10T11:07:23.492Z,12.10
2018-11-10T11:09:51.473Z,14.53
2018-11-10T11:12:19.410Z,16.20
2018-11-10T11:14:47.450Z,16.30
2018-11-10T11:17:15.388Z,12.53
2018-11-10T11:19:43.348Z,14.47
2018-11-10T11:22:11.332Z,13.40
2018-11-10T11:24:39.282Z,11.47
2018-11-10T11:27:07.228Z,11.00
2018-11-10T11:29:35.243Z,12.13
2018-11-10T11:32:02.760Z,14.40
2018-11-10T11:34:30.664Z,13.13
2018-11-10T11:36:58.624Z,13.97
2018-11-10T11:39:26.664Z,12.87
2018-11-10T11:41:54.621Z,11.47
2018-11-10T11:44:22.604Z,13.70
2018-11-10T11:46:50.602Z,13.33
2018-11-10T11:49:18.637Z,13.67
2018-11-10T11:51:46.648Z,13.67
2018-11-10T11:54:14.751Z,12.90
2018-11-10T11:56:42.691Z,15.23
2018-11-10T11:59:10.685Z,14.00
2018-11-10T12:01:38.661Z,13.10
2018-11-10T12:04:06.670Z,11.43
2018-11-10T12:06:34.701Z,14.90
2018-11-10T12:09:02.671Z,12.93
2018-11-10T12:11:30.682Z,12.50
2018-11-10T12:13:58.706Z,14.37
2018-11-10T12:16:27.711Z,14.93
2018-11-10T12:18:54.645Z,12.03
2018-11-10T12:21:22.663Z,15.63
2018-11-10T12:23:50.679Z,14.73
2018-11-10T12:26:18.604Z,13.27
2018-11-10T12:28:46.608Z,18.53
2018-11-10T12:31:14.564Z,13.90
2018-11-10T12:33:42.769Z,14.70
2018-11-10T12:36:10.737Z,15.67
2018-11-10T12:38:38.804Z,15.93
2018-11-10T12:41:06.728Z,13.73
2018-11-10T12:43:34.698Z,11.90
2018-11-10T12:46:02.713Z,13.17
2018-11-10T12:48:30.696Z,11.57
2018-11-10T12:50:58.624Z,13.27
2018-11-10T12:53:26.573Z,11.70
2018-11-10T12:55:54.580Z,14.40
2018-11-10T12:58:22.502Z,14.03
2018-11-10T13:00:50.503Z,13.00
2018-11-10T13:03:18.478Z,18.23
2018-11-10T13:05:46.456Z,14.17
2018-11-10T13:08:15.262Z,12.87
2018-11-10T13:10:43.214Z,17.20
2018-11-10T13:13:11.251Z,15.00
2018-11-10T13:15:39.256Z,15.97
2018-11-10T13:18:07.240Z,13.73
2018-11-10T13:20:35.189Z,15.27
2018-11-10T13:23:03.177Z,16.23
2018-11-10T13:25:31.135Z,18.90
2018-11-10T13:27:59.048Z,14.33
2018-11-10T13:30:27.033Z,15.43
2018-11-10T13:32:54.959Z,19.00
2018-11-10T13:35:22.886Z,18.50
2018-11-10T13:37:50.925Z,38.30
2018-11-10T13:40:18.798Z,23.03
2018-11-10T13:42:46.715Z,18.00
2018-11-10T13:45:14.820Z,19.70
2018-11-10T13:47:43.462Z,18.57
2018-11-10T13:50:11.922Z,19.37
2018-11-10T13:52:41.078Z,23.57
2018-11-10T13:55:08.619Z,20.30
2018-11-10T13:57:36.539Z,38.20
2018-11-10T14:00:05.606Z,38.13
2018-11-10T14:02:33.516Z,31.37
2018-11-10T14:05:01.453Z,16.10
2018-11-10T14:07:29.376Z,36.77
2018-11-10T14:09:58.163Z,13.70
2018-11-10T14:12:26.137Z,17.00
2018-11-10T14:14:54.104Z,16.97
2018-11-10T14:17:22.146Z,14.40
2018-11-10T14:19:50.051Z,15.13
2018-11-10T14:22:17.990Z,18.53
2018-11-10T14:24:45.992Z,15.27
2018-11-10T14:27:13.913Z,16.30
2018-11-10T14:29:42.832Z,13.90
2018-11-10T14:32:10.828Z,12.90
2018-11-10T14:34:39.496Z,11.43
2018-11-10T14:37:07.473Z,12.70
2018-11-10T14:39:35.467Z,12.23
2018-11-10T14:42:03.381Z,14.60
2018-11-10T14:44:31.376Z,11.67
2018-11-10T14:46:59.348Z,13.70
2018-11-10T14:49:27.284Z,13.63
2018-11-10T14:51:55.239Z,11.00
2018-11-10T14:54:23.260Z,10.60
2018-11-10T14:56:51.185Z,11.50
2018-11-10T14:59:19.170Z,14.10
2018-11-10T15:01:47.236Z,13.63
2018-11-10T15:04:15.157Z,13.80
2018-11-10T15:06:43.068Z,18.00
2018-11-10T15:09:11.028Z,26.53
2018-11-10T15:11:39.933Z,24.07
2018-11-10T15:14:08.101Z,19.50
2018-11-10T15:19:10.693Z,14.30
2018-11-10T15:21:38.607Z,17.37
2018-11-10T15:24:06.842Z,12.30
2018-11-10T15:26:34.853Z,13.03
2018-11-10T15:29:02.824Z,14.37
2018-11-10T15:31:31.718Z,11.37
2018-11-10T15:33:59.750Z,14.17
2018-11-10T15:36:27.728Z,15.70
2018-11-10T15:38:55.794Z,13.50
2018-11-10T15:41:23.794Z,17.23
2018-11-10T15:43:51.744Z,15.37
2018-11-10T15:46:19.700Z,13.30
2018-11-10T15:48:47.711Z,13.13
2018-11-10T15:51:15.743Z,12.87
2018-11-10T15:53:43.817Z,13.50
2018-11-10T15:56:11.886Z,17.57
2018-11-10T15:58:39.786Z,15.60
2018-11-10T16:01:07.825Z,25.00
2018-11-10T16:03:35.896Z,27.23
2018-11-10T16:06:03.828Z,22.13
2018-11-10T16:08:31.759Z,21.90
2018-11-10T16:10:59.752Z,18.57
2018-11-10T16:13:28.290Z,17.93
2018-11-10T16:15:56.292Z,29.23
2018-11-10T16:18:24.240Z,20.20
2018-11-10T16:20:52.304Z,23.77
2018-11-10T16:23:20.208Z,28.57
2018-11-10T16:25:48.181Z,30.07
2018-11-10T16:28:16.127Z,20.00
2018-11-10T16:30:44.062Z,17.63
2018-11-10T16:33:12.593Z,18.20
2018-11-10T16:35:40.557Z,17.63
2018-11-10T16:38:08.527Z,17.53
2018-11-10T16:40:36.472Z,17.10
2018-11-10T16:43:04.741Z,17.60
2018-11-10T16:45:32.649Z,17.77
2018-11-10T16:48:00.593Z,22.40
2018-11-10T16:50:28.584Z,20.93
2018-11-10T16:52:56.561Z,19.87
2018-11-10T16:55:24.525Z,23.83
2018-11-10T16:57:52.457Z,25.83
2018-11-10T17:00:20.492Z,19.93
2018-11-10T17:02:48.455Z,22.93
2018-11-10T17:05:16.379Z,18.83
2018-11-10T17:07:44.314Z,21.97
2018-11-10T17:10:13.601Z,19.97
2018-11-10T17:12:41.920Z,15.93
2018-11-10T17:15:11.069Z,19.07
2018-11-10T17:17:39.257Z,17.40
2018-11-10T17:20:08.161Z,21.97
2018-11-10T17:22:36.396Z,21.70
2018-11-10T17:25:04.606Z,14.83
2018-11-10T17:27:32.529Z,19.17
2018-11-10T17:30:00.489Z,17.17
2018-11-10T17:32:28.487Z,16.83
2018-11-10T17:34:56.754Z,21.53
2018-11-10T17:37:24.799Z,19.77
2018-11-10T17:39:52.853Z,22.33
2018-11-10T17:42:20.897Z,23.93
2018-11-10T17:44:48.783Z,20.80
2018-11-10T17:47:16.724Z,26.57
2018-11-10T17:49:44.652Z,23.37
2018-11-10T17:52:12.746Z,28.50
2018-11-10T17:54:40.590Z,26.40
2018-11-10T17:57:08.444Z,32.93
2018-11-10T17:59:36.409Z,31.17
2018-11-10T18:02:04.378Z,26.30
2018-11-10T18:04:32.263Z,26.27
2018-11-10T18:07:00.189Z,29.23
2018-11-10T18:09:28.182Z,27.43
2018-11-10T18:11:56.089Z,26.20
2018-11-10T18:14:24.012Z,30.67
2018-11-10T18:16:51.990Z,24.50
2018-11-10T18:19:19.905Z,27.67
2018-11-10T18:21:47.930Z,25.30
2018-11-10T18:24:15.837Z,30.17
2018-11-10T18:26:43.817Z,28.07
2018-11-10T18:29:12.284Z,34.23
2018-11-10T18:31:40.255Z,27.50
2018-11-10T18:34:08.196Z,25.13
2018-11-10T18:36:36.257Z,34.13
2018-11-10T18:39:05.569Z,28.83
2018-11-10T18:41:33.524Z,30.47
2018-11-10T18:44:01.489Z,40.17
2018-11-10T18:46:29.525Z,40.07
2018-11-10T18:48:57.501Z,32.83
2018-11-10T18:51:25.558Z,36.33
2018-11-10T18:53:53.513Z,32.30
2018-11-10T18:56:21.484Z,35.50
2018-11-10T18:58:49.450Z,38.57
2018-11-10T19:01:18.411Z,30.40
2018-11-10T19:03:46.421Z,32.67
2018-11-10T19:06:14.505Z,37.80
2018-11-10T19:08:42.461Z,30.33
2018-11-10T19:11:10.406Z,35.13
2018-11-10T19:13:38.530Z,30.73
2018-11-10T19:16:06.478Z,31.90
2018-11-10T19:18:34.432Z,31.20
2018-11-10T19:21:02.566Z,37.17
2018-11-10T19:23:30.396Z,31.23
2018-11-10T19:25:58.416Z,26.50
2018-11-10T19:28:26.512Z,29.20
2018-11-10T19:30:54.436Z,35.63
2018-11-10T19:33:22.634Z,32.83
2018-11-10T19:35:50.640Z,29.10
2018-11-10T19:38:18.633Z,29.13
2018-11-10T19:40:46.577Z,29.97
2018-11-10T19:43:14.507Z,32.37
2018-11-10T19:45:42.482Z,35.67
2018-11-10T19:48:10.456Z,49.63
2018-11-10T19:50:38.387Z,32.60
2018-11-10T19:53:06.290Z,37.17
2018-11-10T19:55:34.216Z,33.07
2018-11-10T19:58:02.172Z,41.90
2018-11-10T20:00:30.150Z,35.03
2018-11-10T20:02:58.825Z,40.43
2018-11-10T20:05:26.789Z,40.90
2018-11-10T20:07:54.715Z,48.80
2018-11-10T20:10:22.646Z,39.07
2018-11-10T20:12:50.655Z,41.33
2018-11-10T20:15:18.688Z,31.67
2018-11-10T20:17:46.760Z,28.97
2018-11-10T20:20:16.308Z,28.73
2018-11-10T20:22:44.587Z,33.17
2018-11-10T20:25:13.837Z,31.30
2018-11-10T20:27:41.775Z,39.40
2018-11-10T20:30:10.809Z,37.70
2018-11-10T20:32:38.886Z,38.80
2018-11-10T20:35:07.819Z,29.47
2018-11-10T20:37:35.740Z,30.67
2018-11-10T20:40:04.260Z,29.67
2018-11-10T20:42:32.165Z,32.47
2018-11-10T20:45:00.190Z,34.13
2018-11-10T20:47:28.128Z,35.47
2018-11-10T20:49:56.122Z,30.87
2018-11-10T20:52:24.049Z,34.53
2018-11-10T20:54:52.010Z,28.20
2018-11-10T20:57:19.999Z,30.07
2018-11-10T20:59:47.927Z,29.20
2018-11-10T21:02:15.989Z,24.50
2018-11-10T21:04:45.228Z,25.23
2018-11-10T21:07:13.196Z,25.00
2018-11-10T21:09:41.229Z,25.03
2018-11-10T21:12:09.148Z,26.77
2018-11-10T21:14:37.112Z,23.30
2018-11-10T21:17:05.135Z,30.20
2018-11-10T21:19:33.107Z,24.27
2018-11-10T21:22:01.020Z,23.70
2018-11-10T21:24:28.974Z,28.40
2018-11-10T21:26:57.011Z,29.20
2018-11-10T21:29:25.002Z,27.80
2018-11-10T21:31:52.884Z,33.73
2018-11-10T21:34:20.872Z,31.97
2018-11-10T21:36:49.710Z,26.30
2018-11-10T21:39:17.731Z,27.37
2018-11-10T21:41:45.679Z,25.60
2018-11-10T21:44:13.609Z,23.57
2018-11-10T21:46:41.552Z,23.93
2018-11-10T21:49:09.575Z,23.43
2018-11-10T21:51:37.432Z,24.97
2018-11-10T21:54:05.433Z,26.57
2018-11-10T21:56:33.350Z,21.40
2018-11-10T21:59:01.284Z,26.47
2018-11-10T22:01:29.220Z,27.63
2018-11-10T22:03:57.220Z,23.77
2018-11-10T22:06:26.500Z,23.00
2018-11-10T22:08:54.502Z,23.07
2018-11-10T22:11:22.387Z,23.73
2018-11-10T22:13:50.379Z,23.13
2018-11-10T22:16:18.302Z,22.27
2018-11-10T22:18:46.242Z,19.17
2018-11-10T22:21:14.186Z,22.40
2018-11-10T22:23:42.159Z,20.07
2018-11-10T22:26:10.229Z,20.47
2018-11-10T22:28:38.130Z,19.07
2018-11-10T22:31:06.262Z,23.20
2018-11-10T22:33:34.101Z,23.93
2018-11-10T22:36:02.148Z,21.80
2018-11-10T22:38:30.177Z,25.13
2018-11-10T22:40:58.129Z,21.17
2018-11-10T22:43:26.042Z,22.33
2018-11-10T22:45:53.966Z,20.57
2018-11-10T22:48:21.884Z,19.87
2018-11-10T22:50:49.828Z,21.63
2018-11-10T22:53:17.825Z,23.27
2018-11-10T22:55:45.765Z,19.87
2018-11-10T22:58:13.707Z,20.40
2018-11-10T23:00:47.332Z,23.63
2018-11-10T23:03:15.280Z,21.10
2018-11-10T23:05:43.308Z,22.10
2018-11-10T23:08:12.265Z,22.13
2018-11-10T23:10:40.169Z,21.67
2018-11-10T23:13:08.084Z,29.47
2018-11-10T23:15:36.016Z,23.80
2018-11-10T23:18:03.972Z,21.20
2018-11-10T23:20:31.897Z,24.03
2018-11-10T23:22:59.982Z,21.80
2018-11-10T23:25:27.833Z,24.20
2018-11-10T23:27:55.864Z,22.77
2018-11-10T23:30:24.167Z,24.50
2018-11-10T23:32:52.163Z,23.53
2018-11-10T23:35:20.173Z,24.50
2018-11-10T23:37:48.206Z,27.83
2018-11-10T23:40:16.980Z,29.00
2018-11-10T23:42:44.916Z,28.70
2018-11-10T23:51:14.128Z,27.43
2018-11-10T23:53:42.064Z,25.77
2018-11-10T23:56:10.085Z,30.03
2018-11-10T23:58:38.033Z,25.03
